sensor_id;sensor_type;location;lat;lon;timestamp;P1;durP1;ratioP1;P2;durP2;ratioP2
63087;SDS011;49173;43.164;27.786;2023-01-16T00:00:56;11.73;;;8.75;;
63087;SDS011;49173;43.164;27.786;2023-01-16T00:03:23;13.68;;;8.82;;
63087;SDS011;49173;43.164;27.786;2023-01-16T00:05:49;14.50;;;10.00;;
63087;SDS011;49173;43.164;27.786;2023-01-16T00:08:15;12.98;;;8.98;;
63087;SDS011;49173;43.164;27.786;2023-01-16T00:10:40;13.82;;;9.30;;
63087;SDS011;49173;43.164;27.786;2023-01-16T00:13:06;9.57;;;6.50;;
63087;SDS011;49173;43.164;27.786;2023-01-16T00:15:34;8.63;;;6.18;;
63087;SDS011;49173;43.164;27.786;2023-01-16T00:18:00;7.93;;;6.32;;
63087;SDS011;49173;43.164;27.786;2023-01-16T00:20:26;8.32;;;6.18;;
63087;SDS011;49173;43.164;27.786;2023-01-16T00:22:51;8.68;;;5.35;;
63087;SDS011;49173;43.164;27.786;2023-01-16T00:25:17;10.90;;;5.22;;
63087;SDS011;49173;43.164;27.786;2023-01-16T00:27:43;10.32;;;5.20;;
63087;SDS011;49173;43.164;27.786;2023-01-16T00:30:09;8.35;;;4.53;;
63087;SDS011;49173;43.164;27.786;2023-01-16T00:32:35;8.88;;;5.00;;
63087;SDS011;49173;43.164;27.786;2023-01-16T00:35:01;9.95;;;5.65;;
63087;SDS011;49173;43.164;27.786;2023-01-16T00:37:29;11.50;;;8.15;;
63087;SDS011;49173;43.164;27.786;2023-01-16T00:39:55;11.15;;;7.90;;
63087;SDS011;49173;43.164;27.786;2023-01-16T00:42:22;9.68;;;7.07;;
63087;SDS011;49173;43.164;27.786;2023-01-16T00:44:47;11.30;;;6.93;;
63087;SDS011;49173;43.164;27.786;2023-01-16T00:47:13;11.57;;;6.90;;
63087;SDS011;49173;43.164;27.786;2023-01-16T00:49:39;10.48;;;6.28;;
63087;SDS011;49173;43.164;27.786;2023-01-16T00:52:04;8.88;;;5.15;;
63087;SDS011;49173;43.164;27.786;2023-01-16T00:54:30;9.23;;;5.80;;
63087;SDS011;49173;43.164;27.786;2023-01-16T00:56:56;8.95;;;5.70;;
63087;SDS011;49173;43.164;27.786;2023-01-16T00:59:22;8.10;;;5.30;;
63087;SDS011;49173;43.164;27.786;2023-01-16T01:01:48;8.18;;;5.20;;
63087;SDS011;49173;43.164;27.786;2023-01-16T01:04:13;8.13;;;5.10;;
63087;SDS011;49173;43.164;27.786;2023-01-16T01:06:39;14.18;;;6.88;;
63087;SDS011;49173;43.164;27.786;2023-01-16T01:09:06;10.38;;;5.28;;
63087;SDS011;49173;43.164;27.786;2023-01-16T01:11:32;8.77;;;4.43;;
63087;SDS011;49173;43.164;27.786;2023-01-16T01:13:57;6.95;;;4.53;;
63087;SDS011;49173;43.164;27.786;2023-01-16T01:16:23;11.25;;;5.22;;
63087;SDS011;49173;43.164;27.786;2023-01-16T01:18:49;8.48;;;5.45;;
63087;SDS011;49173;43.164;27.786;2023-01-16T01:21:15;7.63;;;5.15;;
63087;SDS011;49173;43.164;27.786;2023-01-16T01:23:41;10.05;;;4.10;;
63087;SDS011;49173;43.164;27.786;2023-01-16T01:26:14;7.65;;;4.43;;
63087;SDS011;49173;43.164;27.786;2023-01-16T01:28:42;6.03;;;4.43;;
63087;SDS011;49173;43.164;27.786;2023-01-16T01:31:09;6.47;;;4.40;;
63087;SDS011;49173;43.164;27.786;2023-01-16T01:33:37;7.22;;;5.93;;
63087;SDS011;49173;43.164;27.786;2023-01-16T01:36:03;8.15;;;5.53;;
63087;SDS011;49173;43.164;27.786;2023-01-16T01:38:30;6.38;;;4.60;;
63087;SDS011;49173;43.164;27.786;2023-01-16T01:40:56;9.73;;;5.95;;
63087;SDS011;49173;43.164;27.786;2023-01-16T01:46:07;12.50;;;7.13;;
63087;SDS011;49173;43.164;27.786;2023-01-16T01:48:43;11.13;;;7.43;;
63087;SDS011;49173;43.164;27.786;2023-01-16T01:51:19;15.73;;;7.80;;
63087;SDS011;49173;43.164;27.786;2023-01-16T01:56:41;10.88;;;6.03;;
63087;SDS011;49173;43.164;27.786;2023-01-16T01:59:15;9.85;;;6.03;;
63087;SDS011;49173;43.164;27.786;2023-01-16T02:01:46;7.80;;;4.80;;
63087;SDS011;49173;43.164;27.786;2023-01-16T02:04:16;7.18;;;5.10;;
63087;SDS011;49173;43.164;27.786;2023-01-16T02:06:49;7.72;;;4.70;;
63087;SDS011;49173;43.164;27.786;2023-01-16T02:09:18;6.38;;;4.55;;
63087;SDS011;49173;43.164;27.786;2023-01-16T02:14:19;6.22;;;4.57;;
63087;SDS011;49173;43.164;27.786;2023-01-16T02:16:45;6.25;;;4.57;;
63087;SDS011;49173;43.164;27.786;2023-01-16T02:22:08;5.18;;;4.00;;
63087;SDS011;49173;43.164;27.786;2023-01-16T02:30:29;8.10;;;4.78;;
63087;SDS011;49173;43.164;27.786;2023-01-16T02:33:05;7.05;;;4.40;;
63087;SDS011;49173;43.164;27.786;2023-01-16T02:35:49;8.43;;;4.68;;
63087;SDS011;49173;43.164;27.786;2023-01-16T02:43:52;11.02;;;4.40;;
63087;SDS011;49173;43.164;27.786;2023-01-16T02:49:08;11.80;;;4.97;;
63087;SDS011;49173;43.164;27.786;2023-01-16T02:51:50;7.05;;;5.10;;
63087;SDS011;49173;43.164;27.786;2023-01-16T02:54:27;9.73;;;5.07;;
63087;SDS011;49173;43.164;27.786;2023-01-16T02:57:04;15.27;;;8.77;;
63087;SDS011;49173;43.164;27.786;2023-01-16T02:59:35;15.52;;;9.18;;
63087;SDS011;49173;43.164;27.786;2023-01-16T03:02:02;19.35;;;10.70;;
63087;SDS011;49173;43.164;27.786;2023-01-16T03:04:38;18.77;;;11.68;;
63087;SDS011;49173;43.164;27.786;2023-01-16T03:18:41;11.75;;;7.10;;
63087;SDS011;49173;43.164;27.786;2023-01-16T03:24:03;11.25;;;6.80;;
63087;SDS011;49173;43.164;27.786;2023-01-16T03:26:45;13.85;;;7.35;;
63087;SDS011;49173;43.164;27.786;2023-01-16T03:29:18;12.77;;;8.07;;
63087;SDS011;49173;43.164;27.786;2023-01-16T03:31:59;15.77;;;9.70;;
63087;SDS011;49173;43.164;27.786;2023-01-16T03:34:34;15.43;;;9.13;;
63087;SDS011;49173;43.164;27.786;2023-01-16T03:37:12;7.63;;;5.45;;
63087;SDS011;49173;43.164;27.786;2023-01-16T03:39:59;7.72;;;4.90;;
63087;SDS011;49173;43.164;27.786;2023-01-16T03:42:33;8.43;;;4.30;;
63087;SDS011;49173;43.164;27.786;2023-01-16T03:45:05;8.65;;;4.78;;
63087;SDS011;49173;43.164;27.786;2023-01-16T03:47:39;10.60;;;6.20;;
63087;SDS011;49173;43.164;27.786;2023-01-16T03:50:08;11.23;;;6.43;;
63087;SDS011;49173;43.164;27.786;2023-01-16T03:52:43;13.80;;;11.00;;
63087;SDS011;49173;43.164;27.786;2023-01-16T03:55:18;11.13;;;7.63;;
63087;SDS011;49173;43.164;27.786;2023-01-16T03:57:47;8.75;;;6.47;;
63087;SDS011;49173;43.164;27.786;2023-01-16T04:00:18;8.27;;;5.22;;
63087;SDS011;49173;43.164;27.786;2023-01-16T04:02:46;7.57;;;5.28;;
63087;SDS011;49173;43.164;27.786;2023-01-16T04:10:35;8.98;;;5.50;;
63087;SDS011;49173;43.164;27.786;2023-01-16T04:13:07;5.65;;;4.30;;
63087;SDS011;49173;43.164;27.786;2023-01-16T04:15:35;5.03;;;3.70;;
63087;SDS011;49173;43.164;27.786;2023-01-16T04:18:07;6.40;;;4.03;;
63087;SDS011;49173;43.164;27.786;2023-01-16T04:20:34;7.75;;;4.43;;
63087;SDS011;49173;43.164;27.786;2023-01-16T04:23:02;8.77;;;4.05;;
63087;SDS011;49173;43.164;27.786;2023-01-16T04:25:28;7.30;;;3.95;;
63087;SDS011;49173;43.164;27.786;2023-01-16T04:27:54;8.45;;;4.53;;
63087;SDS011;49173;43.164;27.786;2023-01-16T04:30:19;7.00;;;3.80;;
63087;SDS011;49173;43.164;27.786;2023-01-16T04:32:45;7.60;;;4.15;;
63087;SDS011;49173;43.164;27.786;2023-01-16T04:35:11;11.45;;;5.63;;
63087;SDS011;49173;43.164;27.786;2023-01-16T04:37:36;8.93;;;5.43;;
63087;SDS011;49173;43.164;27.786;2023-01-16T04:40:02;9.43;;;6.10;;
63087;SDS011;49173;43.164;27.786;2023-01-16T04:42:29;10.68;;;6.70;;
63087;SDS011;49173;43.164;27.786;2023-01-16T04:44:55;8.68;;;5.85;;
63087;SDS011;49173;43.164;27.786;2023-01-16T04:47:20;9.23;;;5.53;;
63087;SDS011;49173;43.164;27.786;2023-01-16T04:49:46;8.57;;;6.10;;
63087;SDS011;49173;43.164;27.786;2023-01-16T04:52:12;7.82;;;5.32;;
63087;SDS011;49173;43.164;27.786;2023-01-16T04:54:38;39.08;;;22.48;;
63087;SDS011;49173;43.164;27.786;2023-01-16T04:57:04;38.83;;;20.00;;
63087;SDS011;49173;43.164;27.786;2023-01-16T04:59:30;33.53;;;17.13;;
63087;SDS011;49173;43.164;27.786;2023-01-16T05:01:55;23.23;;;12.85;;
63087;SDS011;49173;43.164;27.786;2023-01-16T05:04:22;35.88;;;18.33;;
63087;SDS011;49173;43.164;27.786;2023-01-16T05:06:47;92.35;;;43.65;;
63087;SDS011;49173;43.164;27.786;2023-01-16T05:09:13;65.88;;;29.23;;
63087;SDS011;49173;43.164;27.786;2023-01-16T05:11:39;40.65;;;18.75;;
63087;SDS011;49173;43.164;27.786;2023-01-16T05:14:05;24.40;;;12.32;;
63087;SDS011;49173;43.164;27.786;2023-01-16T05:16:34;18.45;;;10.00;;
63087;SDS011;49173;43.164;27.786;2023-01-16T05:19:01;47.95;;;21.10;;
63087;SDS011;49173;43.164;27.786;2023-01-16T05:21:27;51.30;;;25.73;;
63087;SDS011;49173;43.164;27.786;2023-01-16T05:23:52;73.93;;;34.72;;
63087;SDS011;49173;43.164;27.786;2023-01-16T05:26:18;88.20;;;40.33;;
63087;SDS011;49173;43.164;27.786;2023-01-16T05:28:44;72.30;;;33.67;;
63087;SDS011;49173;43.164;27.786;2023-01-16T05:31:10;89.43;;;42.30;;
63087;SDS011;49173;43.164;27.786;2023-01-16T05:33:36;65.13;;;31.27;;
63087;SDS011;49173;43.164;27.786;2023-01-16T05:36:02;91.78;;;42.33;;
63087;SDS011;49173;43.164;27.786;2023-01-16T05:38:28;49.17;;;26.27;;
63087;SDS011;49173;43.164;27.786;2023-01-16T05:40:53;66.78;;;35.03;;
63087;SDS011;49173;43.164;27.786;2023-01-16T05:43:19;88.43;;;44.83;;
63087;SDS011;49173;43.164;27.786;2023-01-16T05:45:45;69.28;;;36.42;;
63087;SDS011;49173;43.164;27.786;2023-01-16T05:48:11;30.67;;;17.67;;
63087;SDS011;49173;43.164;27.786;2023-01-16T05:50:37;12.80;;;8.00;;
63087;SDS011;49173;43.164;27.786;2023-01-16T05:53:03;9.98;;;6.97;;
63087;SDS011;49173;43.164;27.786;2023-01-16T05:55:29;12.63;;;7.63;;
63087;SDS011;49173;43.164;27.786;2023-01-16T05:57:54;23.52;;;17.40;;
63087;SDS011;49173;43.164;27.786;2023-01-16T06:00:20;17.58;;;9.82;;
63087;SDS011;49173;43.164;27.786;2023-01-16T06:02:46;12.13;;;8.43;;
63087;SDS011;49173;43.164;27.786;2023-01-16T06:05:12;12.13;;;8.00;;
63087;SDS011;49173;43.164;27.786;2023-01-16T06:07:38;20.15;;;12.35;;
63087;SDS011;49173;43.164;27.786;2023-01-16T06:10:05;21.52;;;13.57;;
63087;SDS011;49173;43.164;27.786;2023-01-16T06:12:31;14.15;;;8.52;;
63087;SDS011;49173;43.164;27.786;2023-01-16T06:14:57;15.30;;;7.25;;
63087;SDS011;49173;43.164;27.786;2023-01-16T06:17:23;13.70;;;9.18;;
63087;SDS011;49173;43.164;27.786;2023-01-16T06:19:49;12.30;;;7.88;;
63087;SDS011;49173;43.164;27.786;2023-01-16T06:22:15;13.32;;;8.40;;
63087;SDS011;49173;43.164;27.786;2023-01-16T06:24:41;12.70;;;9.75;;
63087;SDS011;49173;43.164;27.786;2023-01-16T06:27:07;12.93;;;9.80;;
63087;SDS011;49173;43.164;27.786;2023-01-16T06:29:34;13.43;;;9.27;;
63087;SDS011;49173;43.164;27.786;2023-01-16T06:32:00;11.60;;;7.50;;
63087;SDS011;49173;43.164;27.786;2023-01-16T06:34:26;13.10;;;10.00;;
63087;SDS011;49173;43.164;27.786;2023-01-16T06:36:51;28.42;;;15.75;;
63087;SDS011;49173;43.164;27.786;2023-01-16T06:39:17;26.52;;;20.58;;
63087;SDS011;49173;43.164;27.786;2023-01-16T06:41:43;15.95;;;12.32;;
63087;SDS011;49173;43.164;27.786;2023-01-16T06:44:08;15.25;;;12.35;;
63087;SDS011;49173;43.164;27.786;2023-01-16T06:46:34;14.07;;;10.45;;
63087;SDS011;49173;43.164;27.786;2023-01-16T06:49:00;15.43;;;13.07;;
63087;SDS011;49173;43.164;27.786;2023-01-16T06:51:26;12.90;;;9.55;;
63087;SDS011;49173;43.164;27.786;2023-01-16T06:53:52;15.32;;;9.38;;
63087;SDS011;49173;43.164;27.786;2023-01-16T06:56:18;11.57;;;7.88;;
63087;SDS011;49173;43.164;27.786;2023-01-16T06:58:44;11.95;;;8.13;;
63087;SDS011;49173;43.164;27.786;2023-01-16T07:01:10;14.52;;;8.77;;
63087;SDS011;49173;43.164;27.786;2023-01-16T07:03:35;16.42;;;11.25;;
63087;SDS011;49173;43.164;27.786;2023-01-16T07:06:02;20.40;;;13.27;;
63087;SDS011;49173;43.164;27.786;2023-01-16T07:08:28;16.48;;;11.80;;
63087;SDS011;49173;43.164;27.786;2023-01-16T07:10:54;15.05;;;10.75;;
63087;SDS011;49173;43.164;27.786;2023-01-16T07:13:24;13.70;;;10.20;;
63087;SDS011;49173;43.164;27.786;2023-01-16T07:15:53;12.32;;;8.27;;
63087;SDS011;49173;43.164;27.786;2023-01-16T07:18:38;12.13;;;7.40;;
63087;SDS011;49173;43.164;27.786;2023-01-16T07:21:24;11.60;;;8.52;;
63087;SDS011;49173;43.164;27.786;2023-01-16T07:24:12;16.85;;;10.40;;
63087;SDS011;49173;43.164;27.786;2023-01-16T07:26:45;11.15;;;8.40;;
63087;SDS011;49173;43.164;27.786;2023-01-16T07:29:16;11.40;;;7.72;;
63087;SDS011;49173;43.164;27.786;2023-01-16T07:31:42;15.05;;;8.50;;
63087;SDS011;49173;43.164;27.786;2023-01-16T07:34:08;11.40;;;8.00;;
63087;SDS011;49173;43.164;27.786;2023-01-16T07:36:34;8.88;;;6.53;;
63087;SDS011;49173;43.164;27.786;2023-01-16T07:39:00;12.02;;;8.13;;
63087;SDS011;49173;43.164;27.786;2023-01-16T07:41:26;12.35;;;8.70;;
63087;SDS011;49173;43.164;27.786;2023-01-16T07:43:51;15.05;;;8.50;;
63087;SDS011;49173;43.164;27.786;2023-01-16T07:46:17;13.95;;;8.23;;
63087;SDS011;49173;43.164;27.786;2023-01-16T07:48:43;12.05;;;8.43;;
63087;SDS011;49173;43.164;27.786;2023-01-16T07:51:08;13.38;;;9.88;;
63087;SDS011;49173;43.164;27.786;2023-01-16T07:53:34;14.70;;;9.70;;
63087;SDS011;49173;43.164;27.786;2023-01-16T07:56:00;17.33;;;11.70;;
63087;SDS011;49173;43.164;27.786;2023-01-16T07:58:27;14.15;;;7.55;;
63087;SDS011;49173;43.164;27.786;2023-01-16T08:00:54;14.30;;;9.30;;
63087;SDS011;49173;43.164;27.786;2023-01-16T08:03:21;11.20;;;6.80;;
63087;SDS011;49173;43.164;27.786;2023-01-16T08:05:48;9.57;;;6.35;;
63087;SDS011;49173;43.164;27.786;2023-01-16T08:08:15;10.48;;;6.97;;
63087;SDS011;49173;43.164;27.786;2023-01-16T08:10:42;12.13;;;7.15;;
63087;SDS011;49173;43.164;27.786;2023-01-16T08:13:08;19.42;;;9.95;;
63087;SDS011;49173;43.164;27.786;2023-01-16T08:15:34;27.65;;;13.65;;
63087;SDS011;49173;43.164;27.786;2023-01-16T08:17:59;10.07;;;6.60;;
63087;SDS011;49173;43.164;27.786;2023-01-16T08:20:25;21.27;;;10.65;;
63087;SDS011;49173;43.164;27.786;2023-01-16T08:22:51;14.05;;;7.60;;
63087;SDS011;49173;43.164;27.786;2023-01-16T08:25:21;25.77;;;12.60;;
63087;SDS011;49173;43.164;27.786;2023-01-16T08:27:48;29.30;;;14.63;;
63087;SDS011;49173;43.164;27.786;2023-01-16T08:30:14;11.82;;;7.13;;
63087;SDS011;49173;43.164;27.786;2023-01-16T08:32:40;10.32;;;7.22;;
63087;SDS011;49173;43.164;27.786;2023-01-16T08:35:07;15.23;;;8.85;;
63087;SDS011;49173;43.164;27.786;2023-01-16T08:37:34;16.45;;;9.73;;
63087;SDS011;49173;43.164;27.786;2023-01-16T08:40:00;15.00;;;8.65;;
63087;SDS011;49173;43.164;27.786;2023-01-16T08:42:26;12.02;;;8.30;;
63087;SDS011;49173;43.164;27.786;2023-01-16T08:45:13;11.85;;;7.78;;
63087;SDS011;49173;43.164;27.786;2023-01-16T08:47:57;12.25;;;7.30;;
63087;SDS011;49173;43.164;27.786;2023-01-16T08:50:44;12.10;;;8.02;;
63087;SDS011;49173;43.164;27.786;2023-01-16T08:53:29;16.08;;;9.63;;
63087;SDS011;49173;43.164;27.786;2023-01-16T08:55:55;24.60;;;12.65;;
63087;SDS011;49173;43.164;27.786;2023-01-16T08:58:21;23.48;;;13.68;;
63087;SDS011;49173;43.164;27.786;2023-01-16T09:00:47;21.98;;;12.10;;
63087;SDS011;49173;43.164;27.786;2023-01-16T09:03:14;12.95;;;7.50;;
63087;SDS011;49173;43.164;27.786;2023-01-16T09:05:42;19.15;;;11.13;;
63087;SDS011;49173;43.164;27.786;2023-01-16T09:08:07;12.93;;;8.85;;
63087;SDS011;49173;43.164;27.786;2023-01-16T09:10:34;11.88;;;7.57;;
63087;SDS011;49173;43.164;27.786;2023-01-16T09:13:00;18.02;;;11.88;;
63087;SDS011;49173;43.164;27.786;2023-01-16T09:15:44;12.10;;;8.80;;
63087;SDS011;49173;43.164;27.786;2023-01-16T09:18:10;11.80;;;7.55;;
63087;SDS011;49173;43.164;27.786;2023-01-16T09:20:35;10.30;;;7.40;;
63087;SDS011;49173;43.164;27.786;2023-01-16T09:23:02;13.63;;;8.57;;
63087;SDS011;49173;43.164;27.786;2023-01-16T09:25:29;14.48;;;9.90;;
63087;SDS011;49173;43.164;27.786;2023-01-16T09:27:55;10.13;;;7.43;;
63087;SDS011;49173;43.164;27.786;2023-01-16T09:30:22;11.30;;;8.70;;
63087;SDS011;49173;43.164;27.786;2023-01-16T09:32:54;9.02;;;6.72;;
63087;SDS011;49173;43.164;27.786;2023-01-16T09:35:20;11.45;;;7.47;;
63087;SDS011;49173;43.164;27.786;2023-01-16T09:37:46;10.88;;;7.25;;
63087;SDS011;49173;43.164;27.786;2023-01-16T09:40:20;12.88;;;7.97;;
63087;SDS011;49173;43.164;27.786;2023-01-16T09:45:51;11.60;;;7.35;;
63087;SDS011;49173;43.164;27.786;2023-01-16T09:48:42;79.35;;;37.85;;
63087;SDS011;49173;43.164;27.786;2023-01-16T09:51:11;66.10;;;35.38;;
63087;SDS011;49173;43.164;27.786;2023-01-16T09:54:01;14.35;;;9.40;;
63087;SDS011;49173;43.164;27.786;2023-01-16T09:56:51;24.48;;;13.52;;
63087;SDS011;49173;43.164;27.786;2023-01-16T09:59:43;11.93;;;7.88;;
63087;SDS011;49173;43.164;27.786;2023-01-16T10:02:14;16.38;;;9.48;;
63087;SDS011;49173;43.164;27.786;2023-01-16T10:04:46;12.48;;;8.88;;
63087;SDS011;49173;43.164;27.786;2023-01-16T10:19:49;11.40;;;7.45;;
63087;SDS011;49173;43.164;27.786;2023-01-16T10:25:11;15.02;;;8.93;;
63087;SDS011;49173;43.164;27.786;2023-01-16T10:30:43;15.27;;;8.48;;
63087;SDS011;49173;43.164;27.786;2023-01-16T10:33:12;9.60;;;6.88;;
63087;SDS011;49173;43.164;27.786;2023-01-16T10:36:00;15.90;;;9.07;;
63087;SDS011;49173;43.164;27.786;2023-01-16T10:38:41;9.85;;;7.55;;
63087;SDS011;49173;43.164;27.786;2023-01-16T10:41:28;23.52;;;12.80;;
63087;SDS011;49173;43.164;27.786;2023-01-16T10:44:20;14.43;;;8.50;;
63087;SDS011;49173;43.164;27.786;2023-01-16T10:49:53;20.17;;;10.55;;
63087;SDS011;49173;43.164;27.786;2023-01-16T10:52:19;10.50;;;7.60;;
63087;SDS011;49173;43.164;27.786;2023-01-16T10:54:45;11.43;;;7.85;;
63087;SDS011;49173;43.164;27.786;2023-01-16T10:57:15;10.55;;;7.78;;
63087;SDS011;49173;43.164;27.786;2023-01-16T10:59:43;13.18;;;8.15;;
63087;SDS011;49173;43.164;27.786;2023-01-16T11:02:19;17.17;;;9.60;;
63087;SDS011;49173;43.164;27.786;2023-01-16T11:04:52;19.65;;;10.70;;
63087;SDS011;49173;43.164;27.786;2023-01-16T11:07:19;19.23;;;11.57;;
63087;SDS011;49173;43.164;27.786;2023-01-16T11:09:45;14.48;;;9.15;;
63087;SDS011;49173;43.164;27.786;2023-01-16T11:12:18;19.50;;;10.52;;
63087;SDS011;49173;43.164;27.786;2023-01-16T11:15:22;14.13;;;8.10;;
63087;SDS011;49173;43.164;27.786;2023-01-16T11:18:27;17.42;;;8.93;;
63087;SDS011;49173;43.164;27.786;2023-01-16T11:20:56;17.33;;;9.95;;
63087;SDS011;49173;43.164;27.786;2023-01-16T11:25:53;20.70;;;11.00;;
63087;SDS011;49173;43.164;27.786;2023-01-16T11:28:24;12.75;;;8.90;;
63087;SDS011;49173;43.164;27.786;2023-01-16T11:30:56;12.57;;;8.90;;
63087;SDS011;49173;43.164;27.786;2023-01-16T11:33:26;25.73;;;12.25;;
63087;SDS011;49173;43.164;27.786;2023-01-16T11:36:01;12.60;;;7.90;;
63087;SDS011;49173;43.164;27.786;2023-01-16T11:38:29;12.25;;;7.63;;
63087;SDS011;49173;43.164;27.786;2023-01-16T11:40:59;15.32;;;9.27;;
63087;SDS011;49173;43.164;27.786;2023-01-16T11:43:29;11.95;;;8.68;;
63087;SDS011;49173;43.164;27.786;2023-01-16T11:49:23;15.50;;;9.98;;
63087;SDS011;49173;43.164;27.786;2023-01-16T11:51:52;24.55;;;14.93;;
63087;SDS011;49173;43.164;27.786;2023-01-16T11:54:24;14.05;;;9.65;;
63087;SDS011;49173;43.164;27.786;2023-01-16T11:57:11;11.43;;;8.98;;
63087;SDS011;49173;43.164;27.786;2023-01-16T12:05:18;18.05;;;10.43;;
63087;SDS011;49173;43.164;27.786;2023-01-16T12:13:55;12.70;;;8.80;;
63087;SDS011;49173;43.164;27.786;2023-01-16T12:16:48;11.70;;;8.32;;
63087;SDS011;49173;43.164;27.786;2023-01-16T12:24:59;19.73;;;12.68;;
63087;SDS011;49173;43.164;27.786;2023-01-16T12:33:09;9.98;;;8.15;;
63087;SDS011;49173;43.164;27.786;2023-01-16T12:38:45;21.95;;;14.25;;
63087;SDS011;49173;43.164;27.786;2023-01-16T12:41:20;21.00;;;13.23;;
63087;SDS011;49173;43.164;27.786;2023-01-16T12:52:52;14.85;;;9.60;;
63087;SDS011;49173;43.164;27.786;2023-01-16T12:58:13;16.58;;;10.85;;
63087;SDS011;49173;43.164;27.786;2023-01-16T13:00:43;14.88;;;10.00;;
63087;SDS011;49173;43.164;27.786;2023-01-16T13:04:00;14.88;;;11.23;;
63087;SDS011;49173;43.164;27.786;2023-01-16T13:06:21;12.45;;;9.13;;
63087;SDS011;49173;43.164;27.786;2023-01-16T13:09:11;13.00;;;9.50;;
63087;SDS011;49173;43.164;27.786;2023-01-16T13:11:51;10.98;;;8.80;;
63087;SDS011;49173;43.164;27.786;2023-01-16T13:14:45;11.45;;;8.73;;
63087;SDS011;49173;43.164;27.786;2023-01-16T13:17:21;14.02;;;8.70;;
63087;SDS011;49173;43.164;27.786;2023-01-16T13:20:02;10.40;;;8.23;;
63087;SDS011;49173;43.164;27.786;2023-01-16T13:22:38;10.52;;;8.55;;
63087;SDS011;49173;43.164;27.786;2023-01-16T13:25:17;11.80;;;7.90;;
63087;SDS011;49173;43.164;27.786;2023-01-16T13:30:41;14.05;;;10.40;;
63087;SDS011;49173;43.164;27.786;2023-01-16T13:33:11;27.13;;;14.75;;
63087;SDS011;49173;43.164;27.786;2023-01-16T13:35:45;12.85;;;9.00;;
63087;SDS011;49173;43.164;27.786;2023-01-16T13:41:08;14.98;;;9.27;;
63087;SDS011;49173;43.164;27.786;2023-01-16T13:43:59;15.90;;;10.27;;
63087;SDS011;49173;43.164;27.786;2023-01-16T13:47:07;15.73;;;8.45;;
63087;SDS011;49173;43.164;27.786;2023-01-16T13:49:40;16.52;;;9.90;;
63087;SDS011;49173;43.164;27.786;2023-01-16T13:52:18;14.05;;;9.30;;
63087;SDS011;49173;43.164;27.786;2023-01-16T13:54:48;15.45;;;10.23;;
63087;SDS011;49173;43.164;27.786;2023-01-16T13:57:21;13.40;;;9.50;;
63087;SDS011;49173;43.164;27.786;2023-01-16T13:59:54;15.48;;;9.48;;
63087;SDS011;49173;43.164;27.786;2023-01-16T14:07:47;16.05;;;10.13;;
63087;SDS011;49173;43.164;27.786;2023-01-16T14:10:43;17.92;;;10.98;;
63087;SDS011;49173;43.164;27.786;2023-01-16T14:13:32;22.75;;;12.30;;
63087;SDS011;49173;43.164;27.786;2023-01-16T14:19:00;25.77;;;12.07;;
63087;SDS011;49173;43.164;27.786;2023-01-16T14:21:42;22.55;;;13.00;;
63087;SDS011;49173;43.164;27.786;2023-01-16T14:24:28;54.83;;;28.50;;
63087;SDS011;49173;43.164;27.786;2023-01-16T14:27:11;29.52;;;16.80;;
63087;SDS011;49173;43.164;27.786;2023-01-16T14:29:49;27.35;;;16.35;;
63087;SDS011;49173;43.164;27.786;2023-01-16T14:32:22;27.08;;;14.27;;
63087;SDS011;49173;43.164;27.786;2023-01-16T14:34:53;21.77;;;13.70;;
63087;SDS011;49173;43.164;27.786;2023-01-16T14:37:39;21.23;;;13.27;;
63087;SDS011;49173;43.164;27.786;2023-01-16T14:42:45;24.98;;;14.82;;
63087;SDS011;49173;43.164;27.786;2023-01-16T14:45:35;24.65;;;13.60;;
63087;SDS011;49173;43.164;27.786;2023-01-16T14:56:47;17.20;;;10.38;;
63087;SDS011;49173;43.164;27.786;2023-01-16T14:59:18;17.92;;;11.45;;
63087;SDS011;49173;43.164;27.786;2023-01-16T15:01:54;23.63;;;13.07;;
63087;SDS011;49173;43.164;27.786;2023-01-16T15:04:54;27.27;;;15.48;;
63087;SDS011;49173;43.164;27.786;2023-01-16T15:07:48;28.10;;;18.17;;
63087;SDS011;49173;43.164;27.786;2023-01-16T15:10:39;19.75;;;13.57;;
63087;SDS011;49173;43.164;27.786;2023-01-16T15:16:20;20.83;;;12.13;;
63087;SDS011;49173;43.164;27.786;2023-01-16T15:19:16;19.05;;;12.40;;
63087;SDS011;49173;43.164;27.786;2023-01-16T15:22:16;20.15;;;12.85;;
63087;SDS011;49173;43.164;27.786;2023-01-16T15:24:48;23.55;;;14.02;;
63087;SDS011;49173;43.164;27.786;2023-01-16T15:27:25;23.10;;;15.23;;
63087;SDS011;49173;43.164;27.786;2023-01-16T15:30:05;21.20;;;15.55;;
63087;SDS011;49173;43.164;27.786;2023-01-16T15:35:42;24.67;;;16.27;;
63087;SDS011;49173;43.164;27.786;2023-01-16T15:38:11;24.50;;;16.83;;
63087;SDS011;49173;43.164;27.786;2023-01-16T15:43:14;24.42;;;17.13;;
63087;SDS011;49173;43.164;27.786;2023-01-16T15:46:03;27.70;;;20.17;;
63087;SDS011;49173;43.164;27.786;2023-01-16T15:49:14;29.40;;;19.77;;
63087;SDS011;49173;43.164;27.786;2023-01-16T15:51:51;31.70;;;20.67;;
63087;SDS011;49173;43.164;27.786;2023-01-16T15:54:22;26.92;;;18.25;;
63087;SDS011;49173;43.164;27.786;2023-01-16T15:56:48;32.15;;;19.90;;
63087;SDS011;49173;43.164;27.786;2023-01-16T16:04:46;33.70;;;18.90;;
63087;SDS011;49173;43.164;27.786;2023-01-16T16:07:15;30.92;;;16.40;;
63087;SDS011;49173;43.164;27.786;2023-01-16T16:09:42;27.05;;;17.00;;
63087;SDS011;49173;43.164;27.786;2023-01-16T16:12:15;30.92;;;18.38;;
63087;SDS011;49173;43.164;27.786;2023-01-16T16:14:46;29.65;;;17.90;;
63087;SDS011;49173;43.164;27.786;2023-01-16T16:17:32;28.45;;;16.55;;
63087;SDS011;49173;43.164;27.786;2023-01-16T16:22:52;36.08;;;20.70;;
63087;SDS011;49173;43.164;27.786;2023-01-16T16:28:25;105.50;;;56.80;;
63087;SDS011;49173;43.164;27.786;2023-01-16T16:36:29;33.60;;;21.25;;
63087;SDS011;49173;43.164;27.786;2023-01-16T16:39:04;28.23;;;18.95;;
63087;SDS011;49173;43.164;27.786;2023-01-16T16:48:20;27.65;;;16.15;;
63087;SDS011;49173;43.164;27.786;2023-01-16T16:50:50;22.88;;;15.77;;
63087;SDS011;49173;43.164;27.786;2023-01-16T16:53:37;85.72;;;42.65;;
63087;SDS011;49173;43.164;27.786;2023-01-16T16:56:10;155.63;;;70.15;;
63087;SDS011;49173;43.164;27.786;2023-01-16T16:58:42;98.30;;;50.55;;
63087;SDS011;49173;43.164;27.786;2023-01-16T17:01:11;64.68;;;36.63;;
63087;SDS011;49173;43.164;27.786;2023-01-16T17:03:42;50.35;;;32.88;;
63087;SDS011;49173;43.164;27.786;2023-01-16T17:06:13;55.15;;;33.17;;
63087;SDS011;49173;43.164;27.786;2023-01-16T17:08:44;33.95;;;22.17;;
63087;SDS011;49173;43.164;27.786;2023-01-16T17:11:12;39.03;;;22.98;;
63087;SDS011;49173;43.164;27.786;2023-01-16T17:13:39;47.25;;;28.40;;
63087;SDS011;49173;43.164;27.786;2023-01-16T17:16:19;61.72;;;34.15;;
63087;SDS011;49173;43.164;27.786;2023-01-16T17:18:57;41.28;;;24.80;;
63087;SDS011;49173;43.164;27.786;2023-01-16T17:21:30;56.05;;;31.40;;
63087;SDS011;49173;43.164;27.786;2023-01-16T17:24:16;37.53;;;22.80;;
63087;SDS011;49173;43.164;27.786;2023-01-16T17:26:44;42.30;;;24.30;;
63087;SDS011;49173;43.164;27.786;2023-01-16T17:29:13;39.03;;;24.35;;
63087;SDS011;49173;43.164;27.786;2023-01-16T17:31:45;35.50;;;22.05;;
63087;SDS011;49173;43.164;27.786;2023-01-16T17:34:13;37.50;;;23.75;;